sensor_id;sensor_type;location;lat;lon;timestamp;P1;durP1;ratioP1;P2;durP2;ratioP2
15331;SDS011;7766;51.534;6.722;2023-11-19T00:00:15;9.93;;;7.07;;
15331;SDS011;7766;51.534;6.722;2023-11-19T00:02:41;10.07;;;8.10;;
15331;SDS011;7766;51.534;6.722;2023-11-19T00:05:07;9.80;;;7.63;;
15331;SDS011;7766;51.534;6.722;2023-11-19T00:07:34;9.53;;;7.03;;
15331;SDS011;7766;51.534;6.722;2023-11-19T00:10:01;10.17;;;7.67;;
15331;SDS011;7766;51.534;6.722;2023-11-19T00:12:29;10.63;;;7.40;;
15331;SDS011;7766;51.534;6.722;2023-11-19T00:14:55;8.23;;;6.93;;
15331;SDS011;7766;51.534;6.722;2023-11-19T00:17:21;8.20;;;7.40;;
15331;SDS011;7766;51.534;6.722;2023-11-19T00:19:47;9.93;;;6.30;;
15331;SDS011;7766;51.534;6.722;2023-11-19T00:22:16;7.47;;;6.63;;
15331;SDS011;7766;51.534;6.722;2023-11-19T00:24:42;7.83;;;6.40;;
15331;SDS011;7766;51.534;6.722;2023-11-19T00:27:07;9.03;;;6.00;;
15331;SDS011;7766;51.534;6.722;2023-11-19T00:29:33;10.13;;;7.20;;
15331;SDS011;7766;51.534;6.722;2023-11-19T00:31:59;7.67;;;6.20;;
15331;SDS011;7766;51.534;6.722;2023-11-19T00:34:24;8.53;;;5.93;;
15331;SDS011;7766;51.534;6.722;2023-11-19T00:36:50;8.80;;;5.97;;
15331;SDS011;7766;51.534;6.722;2023-11-19T00:39:17;6.37;;;5.70;;
15331;SDS011;7766;51.534;6.722;2023-11-19T00:41:43;7.17;;;6.07;;
15331;SDS011;7766;51.534;6.722;2023-11-19T00:44:09;7.83;;;6.37;;
15331;SDS011;7766;51.534;6.722;2023-11-19T00:46:34;9.50;;;6.27;;
15331;SDS011;7766;51.534;6.722;2023-11-19T00:49:01;8.67;;;5.83;;
15331;SDS011;7766;51.534;6.722;2023-11-19T00:51:27;8.13;;;5.43;;
15331;SDS011;7766;51.534;6.722;2023-11-19T00:53:56;6.20;;;5.27;;
15331;SDS011;7766;51.534;6.722;2023-11-19T00:56:22;8.40;;;5.90;;
15331;SDS011;7766;51.534;6.722;2023-11-19T00:58:48;7.03;;;5.57;;
15331;SDS011;7766;51.534;6.722;2023-11-19T01:01:13;7.27;;;5.20;;
15331;SDS011;7766;51.534;6.722;2023-11-19T01:03:39;5.67;;;4.97;;
15331;SDS011;7766;51.534;6.722;2023-11-19T01:06:05;6.80;;;5.00;;
15331;SDS011;7766;51.534;6.722;2023-11-19T01:08:33;6.07;;;4.80;;
15331;SDS011;7766;51.534;6.722;2023-11-19T01:11:00;8.90;;;5.67;;
15331;SDS011;7766;51.534;6.722;2023-11-19T01:13:27;6.27;;;5.00;;
15331;SDS011;7766;51.534;6.722;2023-11-19T01:15:53;5.03;;;4.47;;
15331;SDS011;7766;51.534;6.722;2023-11-19T01:18:21;4.57;;;4.17;;
15331;SDS011;7766;51.534;6.722;2023-11-19T01:20:47;4.20;;;3.80;;
15331;SDS011;7766;51.534;6.722;2023-11-19T01:23:12;4.87;;;3.80;;
15331;SDS011;7766;51.534;6.722;2023-11-19T01:25:38;3.90;;;3.57;;
15331;SDS011;7766;51.534;6.722;2023-11-19T01:28:05;6.17;;;3.70;;
15331;SDS011;7766;51.534;6.722;2023-11-19T01:30:31;3.67;;;3.17;;
15331;SDS011;7766;51.534;6.722;2023-11-19T01:32:57;3.53;;;3.10;;
15331;SDS011;7766;51.534;6.722;2023-11-19T01:35:23;7.33;;;3.67;;
15331;SDS011;7766;51.534;6.722;2023-11-19T01:37:49;5.10;;;3.40;;
15331;SDS011;7766;51.534;6.722;2023-11-19T01:40:19;3.53;;;3.10;;
15331;SDS011;7766;51.534;6.722;2023-11-19T01:42:45;3.00;;;2.70;;
15331;SDS011;7766;51.534;6.722;2023-11-19T01:45:12;3.40;;;3.10;;
15331;SDS011;7766;51.534;6.722;2023-11-19T01:47:42;5.77;;;3.07;;
15331;SDS011;7766;51.534;6.722;2023-11-19T01:50:09;5.77;;;3.13;;
15331;SDS011;7766;51.534;6.722;2023-11-19T01:52:35;3.57;;;2.90;;
15331;SDS011;7766;51.534;6.722;2023-11-19T01:55:02;3.37;;;2.73;;
15331;SDS011;7766;51.534;6.722;2023-11-19T01:57:29;3.33;;;2.90;;
15331;SDS011;7766;51.534;6.722;2023-11-19T01:59:55;6.77;;;2.83;;
15331;SDS011;7766;51.534;6.722;2023-11-19T02:02:21;4.40;;;3.27;;
15331;SDS011;7766;51.534;6.722;2023-11-19T02:04:49;2.83;;;2.60;;
15331;SDS011;7766;51.534;6.722;2023-11-19T02:07:15;3.83;;;2.80;;
15331;SDS011;7766;51.534;6.722;2023-11-19T02:09:42;6.57;;;2.73;;
15331;SDS011;7766;51.534;6.722;2023-11-19T02:12:09;5.53;;;2.47;;
15331;SDS011;7766;51.534;6.722;2023-11-19T02:14:36;4.33;;;2.97;;
15331;SDS011;7766;51.534;6.722;2023-11-19T02:17:03;5.77;;;3.20;;
15331;SDS011;7766;51.534;6.722;2023-11-19T02:19:29;5.70;;;2.90;;
15331;SDS011;7766;51.534;6.722;2023-11-19T02:21:54;4.13;;;3.10;;
15331;SDS011;7766;51.534;6.722;2023-11-19T02:24:22;5.63;;;2.83;;
15331;SDS011;7766;51.534;6.722;2023-11-19T02:29:53;4.87;;;2.53;;
15331;SDS011;7766;51.534;6.722;2023-11-19T02:32:19;9.20;;;3.23;;
15331;SDS011;7766;51.534;6.722;2023-11-19T02:34:45;5.77;;;2.67;;
15331;SDS011;7766;51.534;6.722;2023-11-19T02:37:11;7.40;;;2.63;;
15331;SDS011;7766;51.534;6.722;2023-11-19T02:39:37;5.57;;;2.70;;
15331;SDS011;7766;51.534;6.722;2023-11-19T02:42:03;6.83;;;2.30;;
15331;SDS011;7766;51.534;6.722;2023-11-19T02:44:29;5.40;;;2.30;;
15331;SDS011;7766;51.534;6.722;2023-11-19T02:46:55;9.67;;;2.90;;
15331;SDS011;7766;51.534;6.722;2023-11-19T02:49:24;4.17;;;2.40;;
15331;SDS011;7766;51.534;6.722;2023-11-19T02:51:50;5.67;;;2.07;;
15331;SDS011;7766;51.534;6.722;2023-11-19T02:54:16;4.87;;;2.67;;
15331;SDS011;7766;51.534;6.722;2023-11-19T02:56:42;5.53;;;2.17;;
15331;SDS011;7766;51.534;6.722;2023-11-19T02:59:08;7.10;;;2.50;;
15331;SDS011;7766;51.534;6.722;2023-11-19T03:01:51;13.60;;;2.70;;
15331;SDS011;7766;51.534;6.722;2023-11-19T03:04:18;6.83;;;2.60;;
15331;SDS011;7766;51.534;6.722;2023-11-19T03:06:45;10.43;;;2.50;;
15331;SDS011;7766;51.534;6.722;2023-11-19T03:09:11;13.33;;;3.07;;
15331;SDS011;7766;51.534;6.722;2023-11-19T03:11:37;9.93;;;3.27;;
15331;SDS011;7766;51.534;6.722;2023-11-19T03:14:03;29.03;;;10.10;;
15331;SDS011;7766;51.534;6.722;2023-11-19T03:16:29;18.40;;;10.50;;
15331;SDS011;7766;51.534;6.722;2023-11-19T03:18:55;13.00;;;5.43;;
15331;SDS011;7766;51.534;6.722;2023-11-19T03:21:30;8.70;;;2.60;;
15331;SDS011;7766;51.534;6.722;2023-11-19T03:23:56;5.83;;;2.40;;
15331;SDS011;7766;51.534;6.722;2023-11-19T03:26:25;10.67;;;2.90;;
15331;SDS011;7766;51.534;6.722;2023-11-19T03:28:51;6.07;;;2.20;;
15331;SDS011;7766;51.534;6.722;2023-11-19T03:31:17;10.37;;;2.50;;
15331;SDS011;7766;51.534;6.722;2023-11-19T03:33:43;8.67;;;2.67;;
15331;SDS011;7766;51.534;6.722;2023-11-19T03:36:10;11.00;;;3.17;;
15331;SDS011;7766;51.534;6.722;2023-11-19T03:38:35;8.67;;;3.13;;
15331;SDS011;7766;51.534;6.722;2023-11-19T03:41:05;16.77;;;3.27;;
15331;SDS011;7766;51.534;6.722;2023-11-19T03:43:35;15.67;;;3.57;;
15331;SDS011;7766;51.534;6.722;2023-11-19T03:46:01;12.30;;;3.07;;
15331;SDS011;7766;51.534;6.722;2023-11-19T03:48:27;15.07;;;3.10;;
15331;SDS011;7766;51.534;6.722;2023-11-19T03:50:53;14.43;;;3.07;;
15331;SDS011;7766;51.534;6.722;2023-11-19T03:53:19;12.83;;;2.87;;
15331;SDS011;7766;51.534;6.722;2023-11-19T03:55:45;14.97;;;3.53;;
15331;SDS011;7766;51.534;6.722;2023-11-19T03:58:11;12.30;;;2.97;;
15331;SDS011;7766;51.534;6.722;2023-11-19T04:00:37;18.37;;;3.47;;
15331;SDS011;7766;51.534;6.722;2023-11-19T04:03:03;17.57;;;3.17;;
15331;SDS011;7766;51.534;6.722;2023-11-19T04:05:29;18.27;;;3.23;;
15331;SDS011;7766;51.534;6.722;2023-11-19T04:07:55;13.57;;;3.57;;
15331;SDS011;7766;51.534;6.722;2023-11-19T04:10:21;12.07;;;2.53;;
15331;SDS011;7766;51.534;6.722;2023-11-19T04:12:47;14.20;;;3.83;;
15331;SDS011;7766;51.534;6.722;2023-11-19T04:15:13;13.73;;;3.83;;
15331;SDS011;7766;51.534;6.722;2023-11-19T04:17:40;17.37;;;3.83;;
15331;SDS011;7766;51.534;6.722;2023-11-19T04:20:06;15.17;;;3.63;;
15331;SDS011;7766;51.534;6.722;2023-11-19T04:22:36;13.30;;;2.90;;
15331;SDS011;7766;51.534;6.722;2023-11-19T04:25:02;13.57;;;2.83;;
15331;SDS011;7766;51.534;6.722;2023-11-19T04:27:29;19.50;;;3.70;;
15331;SDS011;7766;51.534;6.722;2023-11-19T04:29:55;15.10;;;3.30;;
15331;SDS011;7766;51.534;6.722;2023-11-19T04:32:21;12.40;;;3.63;;
15331;SDS011;7766;51.534;6.722;2023-11-19T04:34:47;14.20;;;3.50;;
15331;SDS011;7766;51.534;6.722;2023-11-19T04:37:13;18.93;;;3.47;;
15331;SDS011;7766;51.534;6.722;2023-11-19T04:39:39;16.80;;;3.97;;
15331;SDS011;7766;51.534;6.722;2023-11-19T04:42:05;16.37;;;3.87;;
15331;SDS011;7766;51.534;6.722;2023-11-19T04:44:31;14.50;;;2.50;;
15331;SDS011;7766;51.534;6.722;2023-11-19T04:46:57;15.87;;;3.77;;
15331;SDS011;7766;51.534;6.722;2023-11-19T04:49:23;17.17;;;3.63;;
15331;SDS011;7766;51.534;6.722;2023-11-19T04:51:51;24.30;;;3.93;;
15331;SDS011;7766;51.534;6.722;2023-11-19T04:54:18;17.53;;;3.53;;
15331;SDS011;7766;51.534;6.722;2023-11-19T04:56:47;14.83;;;3.27;;
15331;SDS011;7766;51.534;6.722;2023-11-19T04:59:13;15.27;;;3.73;;
15331;SDS011;7766;51.534;6.722;2023-11-19T05:01:39;15.20;;;3.80;;
15331;SDS011;7766;51.534;6.722;2023-11-19T05:04:06;16.23;;;3.00;;
15331;SDS011;7766;51.534;6.722;2023-11-19T05:06:32;23.60;;;5.17;;
15331;SDS011;7766;51.534;6.722;2023-11-19T05:09:00;21.37;;;3.60;;
15331;SDS011;7766;51.534;6.722;2023-11-19T05:11:26;14.90;;;3.83;;
15331;SDS011;7766;51.534;6.722;2023-11-19T05:13:53;18.03;;;3.57;;
15331;SDS011;7766;51.534;6.722;2023-11-19T05:16:19;19.40;;;3.90;;
15331;SDS011;7766;51.534;6.722;2023-11-19T05:18:46;17.60;;;3.47;;
15331;SDS011;7766;51.534;6.722;2023-11-19T05:21:11;22.30;;;4.53;;
15331;SDS011;7766;51.534;6.722;2023-11-19T05:23:38;21.80;;;4.30;;
15331;SDS011;7766;51.534;6.722;2023-11-19T05:26:04;22.00;;;5.00;;
15331;SDS011;7766;51.534;6.722;2023-11-19T05:28:30;15.63;;;4.23;;
15331;SDS011;7766;51.534;6.722;2023-11-19T05:30:56;17.37;;;4.43;;
15331;SDS011;7766;51.534;6.722;2023-11-19T05:33:22;22.10;;;4.20;;
15331;SDS011;7766;51.534;6.722;2023-11-19T05:35:47;23.00;;;4.43;;
15331;SDS011;7766;51.534;6.722;2023-11-19T05:38:13;23.40;;;3.90;;
15331;SDS011;7766;51.534;6.722;2023-11-19T05:40:39;24.97;;;4.27;;
15331;SDS011;7766;51.534;6.722;2023-11-19T05:43:05;13.80;;;3.63;;
15331;SDS011;7766;51.534;6.722;2023-11-19T05:45:31;16.87;;;3.63;;
15331;SDS011;7766;51.534;6.722;2023-11-19T05:47:57;18.80;;;3.67;;
15331;SDS011;7766;51.534;6.722;2023-11-19T05:50:23;22.73;;;4.23;;
15331;SDS011;7766;51.534;6.722;2023-11-19T05:52:49;16.80;;;3.50;;
15331;SDS011;7766;51.534;6.722;2023-11-19T05:55:17;19.67;;;5.10;;
15331;SDS011;7766;51.534;6.722;2023-11-19T05:57:44;18.97;;;4.23;;
15331;SDS011;7766;51.534;6.722;2023-11-19T06:00:10;19.67;;;3.57;;
15331;SDS011;7766;51.534;6.722;2023-11-19T06:02:38;14.83;;;4.00;;
15331;SDS011;7766;51.534;6.722;2023-11-19T06:05:04;23.83;;;4.57;;
15331;SDS011;7766;51.534;6.722;2023-11-19T06:07:31;23.20;;;4.60;;
15331;SDS011;7766;51.534;6.722;2023-11-19T06:09:57;20.43;;;4.27;;
15331;SDS011;7766;51.534;6.722;2023-11-19T06:12:23;24.83;;;4.57;;
15331;SDS011;7766;51.534;6.722;2023-11-19T06:14:49;25.47;;;3.97;;
15331;SDS011;7766;51.534;6.722;2023-11-19T06:17:15;21.97;;;4.33;;
15331;SDS011;7766;51.534;6.722;2023-11-19T06:19:41;25.87;;;4.30;;
15331;SDS011;7766;51.534;6.722;2023-11-19T06:22:07;16.57;;;3.90;;
15331;SDS011;7766;51.534;6.722;2023-11-19T06:24:33;21.23;;;4.03;;
15331;SDS011;7766;51.534;6.722;2023-11-19T06:26:59;24.03;;;6.77;;
15331;SDS011;7766;51.534;6.722;2023-11-19T06:29:25;30.43;;;9.23;;
15331;SDS011;7766;51.534;6.722;2023-11-19T06:31:50;20.80;;;4.40;;
15331;SDS011;7766;51.534;6.722;2023-11-19T06:34:16;24.77;;;3.80;;
15331;SDS011;7766;51.534;6.722;2023-11-19T06:36:43;21.43;;;4.50;;
15331;SDS011;7766;51.534;6.722;2023-11-19T06:39:09;22.53;;;4.70;;
15331;SDS011;7766;51.534;6.722;2023-11-19T06:41:38;18.30;;;3.27;;
15331;SDS011;7766;51.534;6.722;2023-11-19T06:44:04;24.33;;;4.10;;
15331;SDS011;7766;51.534;6.722;2023-11-19T06:46:30;21.00;;;4.97;;
15331;SDS011;7766;51.534;6.722;2023-11-19T06:48:56;17.27;;;3.57;;
15331;SDS011;7766;51.534;6.722;2023-11-19T06:51:22;14.53;;;3.70;;
15331;SDS011;7766;51.534;6.722;2023-11-19T06:53:49;25.47;;;4.43;;
15331;SDS011;7766;51.534;6.722;2023-11-19T06:56:21;16.20;;;3.57;;
15331;SDS011;7766;51.534;6.722;2023-11-19T06:58:48;21.50;;;4.20;;
15331;SDS011;7766;51.534;6.722;2023-11-19T07:01:17;18.83;;;4.33;;
15331;SDS011;7766;51.534;6.722;2023-11-19T07:03:46;20.07;;;4.27;;
15331;SDS011;7766;51.534;6.722;2023-11-19T07:06:12;23.30;;;3.87;;
15331;SDS011;7766;51.534;6.722;2023-11-19T07:08:39;14.30;;;3.63;;
15331;SDS011;7766;51.534;6.722;2023-11-19T07:11:05;18.03;;;4.40;;
15331;SDS011;7766;51.534;6.722;2023-11-19T07:13:31;19.73;;;4.97;;
15331;SDS011;7766;51.534;6.722;2023-11-19T07:15:57;24.60;;;4.30;;
15331;SDS011;7766;51.534;6.722;2023-11-19T07:18:23;22.10;;;4.00;;
15331;SDS011;7766;51.534;6.722;2023-11-19T07:20:49;23.77;;;4.23;;
15331;SDS011;7766;51.534;6.722;2023-11-19T07:23:15;26.67;;;5.00;;
15331;SDS011;7766;51.534;6.722;2023-11-19T07:25:44;18.37;;;3.40;;
15331;SDS011;7766;51.534;6.722;2023-11-19T07:28:11;25.03;;;4.50;;
15331;SDS011;7766;51.534;6.722;2023-11-19T07:30:37;23.33;;;4.30;;
15331;SDS011;7766;51.534;6.722;2023-11-19T07:33:04;15.33;;;4.73;;
15331;SDS011;7766;51.534;6.722;2023-11-19T07:35:29;21.27;;;4.37;;
15331;SDS011;7766;51.534;6.722;2023-11-19T07:37:56;18.13;;;4.17;;
15331;SDS011;7766;51.534;6.722;2023-11-19T07:40:22;18.07;;;4.37;;
15331;SDS011;7766;51.534;6.722;2023-11-19T07:42:49;24.77;;;4.00;;
15331;SDS011;7766;51.534;6.722;2023-11-19T07:45:15;20.70;;;3.87;;
15331;SDS011;7766;51.534;6.722;2023-11-19T07:47:41;20.57;;;3.87;;
15331;SDS011;7766;51.534;6.722;2023-11-19T07:50:09;23.23;;;4.20;;
15331;SDS011;7766;51.534;6.722;2023-11-19T07:52:35;23.43;;;4.20;;
15331;SDS011;7766;51.534;6.722;2023-11-19T07:55:01;16.90;;;3.73;;
15331;SDS011;7766;51.534;6.722;2023-11-19T07:57:27;20.87;;;4.67;;
15331;SDS011;7766;51.534;6.722;2023-11-19T07:59:55;20.60;;;3.83;;
15331;SDS011;7766;51.534;6.722;2023-11-19T08:02:21;17.47;;;4.20;;
15331;SDS011;7766;51.534;6.722;2023-11-19T08:04:48;19.97;;;4.43;;
15331;SDS011;7766;51.534;6.722;2023-11-19T08:07:16;23.67;;;4.20;;
15331;SDS011;7766;51.534;6.722;2023-11-19T08:09:42;20.37;;;4.80;;
15331;SDS011;7766;51.534;6.722;2023-11-19T08:12:08;21.67;;;4.47;;
15331;SDS011;7766;51.534;6.722;2023-11-19T08:14:34;24.07;;;4.13;;
15331;SDS011;7766;51.534;6.722;2023-11-19T08:17:02;26.27;;;4.23;;
15331;SDS011;7766;51.534;6.722;2023-11-19T08:19:28;16.67;;;3.77;;
15331;SDS011;7766;51.534;6.722;2023-11-19T08:21:54;18.80;;;3.67;;
15331;SDS011;7766;51.534;6.722;2023-11-19T08:24:19;17.17;;;3.70;;
15331;SDS011;7766;51.534;6.722;2023-11-19T08:26:45;23.07;;;4.40;;
15331;SDS011;7766;51.534;6.722;2023-11-19T08:29:11;20.03;;;3.70;;
15331;SDS011;7766;51.534;6.722;2023-11-19T08:31:38;19.93;;;4.13;;
15331;SDS011;7766;51.534;6.722;2023-11-19T08:34:04;25.73;;;4.73;;
15331;SDS011;7766;51.534;6.722;2023-11-19T08:36:33;18.93;;;4.37;;
15331;SDS011;7766;51.534;6.722;2023-11-19T08:38:59;25.07;;;5.43;;
15331;SDS011;7766;51.534;6.722;2023-11-19T08:41:25;18.00;;;3.57;;
15331;SDS011;7766;51.534;6.722;2023-11-19T08:43:51;21.93;;;4.73;;
15331;SDS011;7766;51.534;6.722;2023-11-19T08:46:17;19.70;;;4.57;;
15331;SDS011;7766;51.534;6.722;2023-11-19T08:48:44;19.13;;;3.83;;
15331;SDS011;7766;51.534;6.722;2023-11-19T08:51:11;19.20;;;3.83;;
15331;SDS011;7766;51.534;6.722;2023-11-19T08:53:37;17.40;;;3.97;;
15331;SDS011;7766;51.534;6.722;2023-11-19T08:56:03;22.37;;;4.67;;
15331;SDS011;7766;51.534;6.722;2023-11-19T08:58:29;14.87;;;3.70;;
15331;SDS011;7766;51.534;6.722;2023-11-19T09:00:55;17.90;;;3.90;;
15331;SDS011;7766;51.534;6.722;2023-11-19T09:03:21;19.07;;;3.73;;
15331;SDS011;7766;51.534;6.722;2023-11-19T09:05:47;23.67;;;4.33;;
15331;SDS011;7766;51.534;6.722;2023-11-19T09:08:13;24.77;;;4.80;;
15331;SDS011;7766;51.534;6.722;2023-11-19T09:10:39;19.17;;;4.80;;
15331;SDS011;7766;51.534;6.722;2023-11-19T09:13:05;19.97;;;3.37;;
15331;SDS011;7766;51.534;6.722;2023-11-19T09:15:31;16.90;;;3.73;;
15331;SDS011;7766;51.534;6.722;2023-11-19T09:17:57;17.17;;;3.90;;
15331;SDS011;7766;51.534;6.722;2023-11-19T09:20:23;15.93;;;4.33;;
15331;SDS011;7766;51.534;6.722;2023-11-19T09:22:49;16.50;;;4.03;;
15331;SDS011;7766;51.534;6.722;2023-11-19T09:25:16;22.47;;;4.00;;
15331;SDS011;7766;51.534;6.722;2023-11-19T09:27:43;23.17;;;4.53;;
15331;SDS011;7766;51.534;6.722;2023-11-19T09:30:09;21.67;;;4.33;;
15331;SDS011;7766;51.534;6.722;2023-11-19T09:32:35;17.07;;;4.60;;
15331;SDS011;7766;51.534;6.722;2023-11-19T09:35:02;20.90;;;5.03;;
15331;SDS011;7766;51.534;6.722;2023-11-19T09:37:28;16.77;;;3.50;;
15331;SDS011;7766;51.534;6.722;2023-11-19T09:39:54;21.33;;;3.70;;
15331;SDS011;7766;51.534;6.722;2023-11-19T09:42:21;20.27;;;4.70;;
15331;SDS011;7766;51.534;6.722;2023-11-19T09:44:47;22.17;;;3.67;;
15331;SDS011;7766;51.534;6.722;2023-11-19T09:47:14;15.60;;;4.00;;
15331;SDS011;7766;51.534;6.722;2023-11-19T09:49:40;17.43;;;4.50;;
15331;SDS011;7766;51.534;6.722;2023-11-19T09:52:06;17.77;;;4.20;;
15331;SDS011;7766;51.534;6.722;2023-11-19T09:54:32;21.03;;;4.00;;
15331;SDS011;7766;51.534;6.722;2023-11-19T09:56:58;23.63;;;4.70;;
15331;SDS011;7766;51.534;6.722;2023-11-19T09:59:29;23.40;;;4.83;;
15331;SDS011;7766;51.534;6.722;2023-11-19T10:01:56;21.17;;;3.60;;
15331;SDS011;7766;51.534;6.722;2023-11-19T10:04:21;32.13;;;4.67;;
15331;SDS011;7766;51.534;6.722;2023-11-19T10:06:49;21.87;;;3.77;;
15331;SDS011;7766;51.534;6.722;2023-11-19T10:09:16;19.37;;;4.17;;
15331;SDS011;7766;51.534;6.722;2023-11-19T10:11:42;20.43;;;3.77;;
15331;SDS011;7766;51.534;6.722;2023-11-19T10:14:08;20.20;;;4.00;;
15331;SDS011;7766;51.534;6.722;2023-11-19T10:16:34;17.67;;;4.20;;
15331;SDS011;7766;51.534;6.722;2023-11-19T10:19:00;17.83;;;3.50;;
15331;SDS011;7766;51.534;6.722;2023-11-19T10:21:26;26.47;;;4.17;;
15331;SDS011;7766;51.534;6.722;2023-11-19T10:23:56;17.40;;;3.97;;
15331;SDS011;7766;51.534;6.722;2023-11-19T10:26:25;23.83;;;3.67;;
15331;SDS011;7766;51.534;6.722;2023-11-19T10:28:52;20.73;;;4.03;;
15331;SDS011;7766;51.534;6.722;2023-11-19T10:31:19;21.67;;;4.13;;
15331;SDS011;7766;51.534;6.722;2023-11-19T10:33:50;18.07;;;4.20;;
15331;SDS011;7766;51.534;6.722;2023-11-19T10:36:16;21.20;;;3.53;;
15331;SDS011;7766;51.534;6.722;2023-11-19T10:38:51;19.73;;;4.00;;
15331;SDS011;7766;51.534;6.722;2023-11-19T10:41:26;21.07;;;4.73;;
15331;SDS011;7766;51.534;6.722;2023-11-19T10:43:52;19.57;;;4.27;;
15331;SDS011;7766;51.534;6.722;2023-11-19T10:46:18;21.87;;;4.60;;
15331;SDS011;7766;51.534;6.722;2023-11-19T10:48:47;21.33;;;3.40;;
15331;SDS011;7766;51.534;6.722;2023-11-19T10:51:13;16.30;;;4.03;;
15331;SDS011;7766;51.534;6.722;2023-11-19T10:53:48;16.07;;;3.73;;
15331;SDS011;7766;51.534;6.722;2023-11-19T10:56:15;16.33;;;3.37;;
15331;SDS011;7766;51.534;6.722;2023-11-19T10:58:44;19.40;;;3.70;;
15331;SDS011;7766;51.534;6.722;2023-11-19T11:01:13;16.87;;;3.43;;
15331;SDS011;7766;51.534;6.722;2023-11-19T11:03:42;21.20;;;3.73;;
15331;SDS011;7766;51.534;6.722;2023-11-19T11:06:08;17.23;;;3.60;;
15331;SDS011;7766;51.534;6.722;2023-11-19T11:08:36;15.57;;;3.63;;
15331;SDS011;7766;51.534;6.722;2023-11-19T11:11:03;15.70;;;3.97;;
15331;SDS011;7766;51.534;6.722;2023-11-19T11:13:29;19.97;;;3.47;;
15331;SDS011;7766;51.534;6.722;2023-11-19T11:15:57;17.77;;;3.93;;
15331;SDS011;7766;51.534;6.722;2023-11-19T11:18:23;15.73;;;4.37;;
15331;SDS011;7766;51.534;6.722;2023-11-19T11:20:54;17.50;;;3.43;;
15331;SDS011;7766;51.534;6.722;2023-11-19T11:23:32;17.23;;;3.80;;
15331;SDS011;7766;51.534;6.722;2023-11-19T11:31:36;16.10;;;3.90;;
15331;SDS011;7766;51.534;6.722;2023-11-19T11:39:46;16.63;;;3.70;;
15331;SDS011;7766;51.534;6.722;2023-11-19T11:50:10;17.57;;;3.73;;
15331;SDS011;7766;51.534;6.722;2023-11-19T11:55:34;16.80;;;3.37;;
15331;SDS011;7766;51.534;6.722;2023-11-19T11:58:01;17.60;;;3.40;;
15331;SDS011;7766;51.534;6.722;2023-11-19T12:00:30;19.90;;;3.33;;
15331;SDS011;7766;51.534;6.722;2023-11-19T12:02:57;12.37;;;3.30;;
15331;SDS011;7766;51.534;6.722;2023-11-19T12:05:26;16.37;;;3.93;;
15331;SDS011;7766;51.534;6.722;2023-11-19T12:07:55;10.77;;;2.63;;
15331;SDS011;7766;51.534;6.722;2023-11-19T12:10:24;15.90;;;2.93;;
15331;SDS011;7766;51.534;6.722;2023-11-19T12:12:53;16.07;;;4.07;;
15331;SDS011;7766;51.534;6.722;2023-11-19T12:15:19;14.37;;;3.27;;
15331;SDS011;7766;51.534;6.722;2023-11-19T12:17:50;22.40;;;4.47;;
15331;SDS011;7766;51.534;6.722;2023-11-19T12:20:16;13.90;;;3.50;;
15331;SDS011;7766;51.534;6.722;2023-11-19T12:22:44;25.23;;;4.20;;
15331;SDS011;7766;51.534;6.722;2023-11-19T12:25:10;13.47;;;4.30;;
15331;SDS011;7766;51.534;6.722;2023-11-19T12:27:42;17.03;;;4.10;;
15331;SDS011;7766;51.534;6.722;2023-11-19T12:30:09;14.37;;;3.50;;
15331;SDS011;7766;51.534;6.722;2023-11-19T12:32:38;16.23;;;3.10;;
15331;SDS011;7766;51.534;6.722;2023-11-19T12:35:05;18.97;;;3.73;;
15331;SDS011;7766;51.534;6.722;2023-11-19T12:37:32;12.23;;;2.97;;
15331;SDS011;7766;51.534;6.722;2023-11-19T12:39:58;20.57;;;4.20;;
15331;SDS011;7766;51.534;6.722;2023-11-19T12:42:36;18.60;;;3.90;;
15331;SDS011;7766;51.534;6.722;2023-11-19T12:45:03;12.90;;;2.93;;
15331;SDS011;7766;51.534;6.722;2023-11-19T12:47:29;20.67;;;4.67;;
15331;SDS011;7766;51.534;6.722;2023-11-19T12:49:56;16.87;;;3.40;;
15331;SDS011;7766;51.534;6.722;2023-11-19T12:52:22;18.37;;;3.40;;
15331;SDS011;7766;51.534;6.722;2023-11-19T12:54:51;14.03;;;3.37;;
15331;SDS011;7766;51.534;6.722;2023-11-19T12:57:17;13.77;;;3.23;;
15331;SDS011;7766;51.534;6.722;2023-11-19T12:59:55;13.50;;;2.63;;
15331;SDS011;7766;51.534;6.722;2023-11-19T13:02:21;14.60;;;2.47;;
15331;SDS011;7766;51.534;6.722;2023-11-19T13:04:48;12.87;;;2.97;;
15331;SDS011;7766;51.534;6.722;2023-11-19T13:07:19;9.27;;;2.63;;
15331;SDS011;7766;51.534;6.722;2023-11-19T13:09:46;10.13;;;2.43;;
15331;SDS011;7766;51.534;6.722;2023-11-19T13:12:12;12.90;;;2.50;;
15331;SDS011;7766;51.534;6.722;2023-11-19T13:14:38;8.13;;;2.50;;
15331;SDS011;7766;51.534;6.722;2023-11-19T13:17:05;11.03;;;2.50;;
15331;SDS011;7766;51.534;6.722;2023-11-19T13:19:30;15.13;;;2.70;;
15331;SDS011;7766;51.534;6.722;2023-11-19T13:21:56;9.73;;;2.07;;
15331;SDS011;7766;51.534;6.722;2023-11-19T13:24:22;14.97;;;3.50;;
15331;SDS011;7766;51.534;6.722;2023-11-19T13:26:48;11.50;;;3.57;;
15331;SDS011;7766;51.534;6.722;2023-11-19T13:29:14;15.53;;;4.10;;
15331;SDS011;7766;51.534;6.722;2023-11-19T13:31:40;11.07;;;3.17;;
15331;SDS011;7766;51.534;6.722;2023-11-19T13:34:06;22.73;;;7.63;;
15331;SDS011;7766;51.534;6.722;2023-11-19T13:36:33;14.50;;;4.13;;
15331;SDS011;7766;51.534;6.722;2023-11-19T13:38:59;14.43;;;3.67;;
15331;SDS011;7766;51.534;6.722;2023-11-19T13:41:26;17.13;;;3.17;;
15331;SDS011;7766;51.534;6.722;2023-11-19T13:43:52;15.33;;;3.83;;
15331;SDS011;7766;51.534;6.722;2023-11-19T13:46:18;13.70;;;3.00;;
15331;SDS011;7766;51.534;6.722;2023-11-19T13:48:45;10.80;;;2.87;;
15331;SDS011;7766;51.534;6.722;2023-11-19T13:51:11;11.80;;;2.97;;
15331;SDS011;7766;51.534;6.722;2023-11-19T13:53:36;14.63;;;2.87;;
15331;SDS011;7766;51.534;6.722;2023-11-19T13:56:02;17.83;;;2.90;;
15331;SDS011;7766;51.534;6.722;2023-11-19T13:58:28;19.23;;;4.27;;
15331;SDS011;7766;51.534;6.722;2023-11-19T14:00:54;16.77;;;3.37;;
15331;SDS011;7766;51.534;6.722;2023-11-19T14:03:20;14.50;;;3.60;;
15331;SDS011;7766;51.534;6.722;2023-11-19T14:05:45;10.27;;;3.10;;
15331;SDS011;7766;51.534;6.722;2023-11-19T14:08:12;15.17;;;3.87;;
15331;SDS011;7766;51.534;6.722;2023-11-19T14:10:38;11.93;;;3.00;;
15331;SDS011;7766;51.534;6.722;2023-11-19T14:13:05;13.33;;;4.27;;
15331;SDS011;7766;51.534;6.722;2023-11-19T14:15:34;14.00;;;3.93;;
15331;SDS011;7766;51.534;6.722;2023-11-19T14:18:00;20.17;;;4.20;;
15331;SDS011;7766;51.534;6.722;2023-11-19T14:20:26;14.20;;;3.33;;
15331;SDS011;7766;51.534;6.722;2023-11-19T14:22:52;13.43;;;3.10;;
15331;SDS011;7766;51.534;6.722;2023-11-19T14:25:18;11.77;;;2.57;;
15331;SDS011;7766;51.534;6.722;2023-11-19T14:27:46;16.47;;;3.63;;
15331;SDS011;7766;51.534;6.722;2023-11-19T14:30:12;19.33;;;3.97;;
15331;SDS011;7766;51.534;6.722;2023-11-19T14:32:41;15.77;;;3.40;;
15331;SDS011;7766;51.534;6.722;2023-11-19T14:35:08;15.53;;;2.93;;
15331;SDS011;7766;51.534;6.722;2023-11-19T14:37:34;10.07;;;3.47;;
15331;SDS011;7766;51.534;6.722;2023-11-19T14:40:00;17.13;;;3.47;;
15331;SDS011;7766;51.534;6.722;2023-11-19T14:42:29;13.10;;;3.37;;
15331;SDS011;7766;51.534;6.722;2023-11-19T14:44:55;12.17;;;2.87;;
15331;SDS011;7766;51.534;6.722;2023-11-19T14:47:21;12.70;;;2.60;;
15331;SDS011;7766;51.534;6.722;2023-11-19T14:49:47;19.13;;;3.77;;
15331;SDS011;7766;51.534;6.722;2023-11-19T14:52:13;12.20;;;3.60;;
15331;SDS011;7766;51.534;6.722;2023-11-19T14:54:39;14.17;;;3.30;;
15331;SDS011;7766;51.534;6.722;2023-11-19T14:57:05;11.60;;;4.47;;
15331;SDS011;7766;51.534;6.722;2023-11-19T14:59:33;12.53;;;2.60;;
15331;SDS011;7766;51.534;6.722;2023-11-19T15:01:59;10.57;;;2.70;;
15331;SDS011;7766;51.534;6.722;2023-11-19T15:04:25;14.23;;;2.87;;
15331;SDS011;7766;51.534;6.722;2023-11-19T15:06:51;17.07;;;3.37;;
15331;SDS011;7766;51.534;6.722;2023-11-19T15:09:17;13.93;;;3.37;;
15331;SDS011;7766;51.534;6.722;2023-11-19T15:11:43;9.73;;;2.70;;